sensor_id;sensor_type;location;lat;lon;timestamp;P1;durP1;ratioP1;P2;durP2;ratioP2
19006;SDS011;9636;47.382;8.480;2023-02-01T00:01:27;2.07;;;1.60;;
19006;SDS011;9636;47.382;8.480;2023-02-01T00:03:57;2.27;;;1.73;;
19006;SDS011;9636;47.382;8.480;2023-02-01T00:06:25;2.87;;;1.90;;
19006;SDS011;9636;47.382;8.480;2023-02-01T00:08:52;1.90;;;1.50;;
19006;SDS011;9636;47.382;8.480;2023-02-01T00:11:20;1.63;;;1.53;;
19006;SDS011;9636;47.382;8.480;2023-02-01T00:13:47;2.00;;;1.80;;
19006;SDS011;9636;47.382;8.480;2023-02-01T00:16:15;1.70;;;1.60;;
19006;SDS011;9636;47.382;8.480;2023-02-01T00:18:42;2.33;;;1.70;;
19006;SDS011;9636;47.382;8.480;2023-02-01T00:21:12;1.60;;;1.50;;
19006;SDS011;9636;47.382;8.480;2023-02-01T00:23:40;1.50;;;1.40;;
19006;SDS011;9636;47.382;8.480;2023-02-01T00:26:10;1.93;;;1.60;;
19006;SDS011;9636;47.382;8.480;2023-02-01T00:28:39;2.00;;;1.80;;
19006;SDS011;9636;47.382;8.480;2023-02-01T00:31:06;2.50;;;1.60;;
19006;SDS011;9636;47.382;8.480;2023-02-01T00:33:33;1.60;;;1.50;;
19006;SDS011;9636;47.382;8.480;2023-02-01T00:36:02;1.60;;;1.50;;
19006;SDS011;9636;47.382;8.480;2023-02-01T00:38:30;1.70;;;1.60;;
19006;SDS011;9636;47.382;8.480;2023-02-01T00:41:05;2.37;;;1.90;;
19006;SDS011;9636;47.382;8.480;2023-02-01T00:43:33;1.70;;;1.60;;
19006;SDS011;9636;47.382;8.480;2023-02-01T00:46:00;1.60;;;1.50;;
19006;SDS011;9636;47.382;8.480;2023-02-01T00:48:28;2.57;;;1.70;;
19006;SDS011;9636;47.382;8.480;2023-02-01T00:50:58;2.73;;;1.70;;
19006;SDS011;9636;47.382;8.480;2023-02-01T00:53:25;3.23;;;1.53;;
19006;SDS011;9636;47.382;8.480;2023-02-01T00:55:52;1.70;;;1.60;;
19006;SDS011;9636;47.382;8.480;2023-02-01T00:58:21;1.87;;;1.77;;
19006;SDS011;9636;47.382;8.480;2023-02-01T01:00:49;1.77;;;1.60;;
19006;SDS011;9636;47.382;8.480;2023-02-01T01:03:16;2.13;;;1.90;;
19006;SDS011;9636;47.382;8.480;2023-02-01T01:05:49;2.47;;;1.87;;
19006;SDS011;9636;47.382;8.480;2023-02-01T01:08:16;1.77;;;1.60;;
19006;SDS011;9636;47.382;8.480;2023-02-01T01:10:43;1.93;;;1.70;;
19006;SDS011;9636;47.382;8.480;2023-02-01T01:13:10;1.93;;;1.50;;
19006;SDS011;9636;47.382;8.480;2023-02-01T01:15:39;2.10;;;1.70;;
19006;SDS011;9636;47.382;8.480;2023-02-01T01:18:06;2.00;;;1.80;;
19006;SDS011;9636;47.382;8.480;2023-02-01T01:20:34;2.17;;;1.63;;
19006;SDS011;9636;47.382;8.480;2023-02-01T01:23:02;1.50;;;1.40;;
19006;SDS011;9636;47.382;8.480;2023-02-01T01:25:29;1.60;;;1.50;;
19006;SDS011;9636;47.382;8.480;2023-02-01T01:27:56;2.20;;;1.87;;
19006;SDS011;9636;47.382;8.480;2023-02-01T01:30:24;1.80;;;1.60;;
19006;SDS011;9636;47.382;8.480;2023-02-01T01:32:52;2.00;;;1.80;;
19006;SDS011;9636;47.382;8.480;2023-02-01T01:35:19;2.93;;;1.70;;
19006;SDS011;9636;47.382;8.480;2023-02-01T01:37:47;2.10;;;1.80;;
19006;SDS011;9636;47.382;8.480;2023-02-01T01:40:14;2.07;;;1.70;;
19006;SDS011;9636;47.382;8.480;2023-02-01T01:42:41;1.60;;;1.50;;
19006;SDS011;9636;47.382;8.480;2023-02-01T01:45:16;2.00;;;1.80;;
19006;SDS011;9636;47.382;8.480;2023-02-01T01:47:46;1.80;;;1.70;;
19006;SDS011;9636;47.382;8.480;2023-02-01T01:50:16;2.43;;;1.87;;
19006;SDS011;9636;47.382;8.480;2023-02-01T01:52:45;3.23;;;1.73;;
19006;SDS011;9636;47.382;8.480;2023-02-01T01:55:13;1.60;;;1.50;;
19006;SDS011;9636;47.382;8.480;2023-02-01T01:57:42;2.23;;;1.70;;
19006;SDS011;9636;47.382;8.480;2023-02-01T02:00:11;2.07;;;1.77;;
19006;SDS011;9636;47.382;8.480;2023-02-01T02:02:39;2.83;;;1.73;;
19006;SDS011;9636;47.382;8.480;2023-02-01T02:05:07;1.80;;;1.60;;
19006;SDS011;9636;47.382;8.480;2023-02-01T02:07:36;1.70;;;1.60;;
19006;SDS011;9636;47.382;8.480;2023-02-01T02:10:05;2.37;;;1.80;;
19006;SDS011;9636;47.382;8.480;2023-02-01T02:12:32;2.00;;;1.60;;
19006;SDS011;9636;47.382;8.480;2023-02-01T02:14:59;1.63;;;1.50;;
19006;SDS011;9636;47.382;8.480;2023-02-01T02:17:30;1.90;;;1.80;;
19006;SDS011;9636;47.382;8.480;2023-02-01T02:20:17;1.70;;;1.60;;
19006;SDS011;9636;47.382;8.480;2023-02-01T02:25:33;2.17;;;1.93;;
19006;SDS011;9636;47.382;8.480;2023-02-01T02:28:05;2.10;;;1.90;;
19006;SDS011;9636;47.382;8.480;2023-02-01T02:30:41;2.80;;;1.80;;
19006;SDS011;9636;47.382;8.480;2023-02-01T02:35:56;2.60;;;1.90;;
19006;SDS011;9636;47.382;8.480;2023-02-01T02:38:26;1.60;;;1.50;;
19006;SDS011;9636;47.382;8.480;2023-02-01T02:40:58;3.10;;;1.80;;
19006;SDS011;9636;47.382;8.480;2023-02-01T02:43:30;1.73;;;1.63;;
19006;SDS011;9636;47.382;8.480;2023-02-01T02:46:19;2.00;;;1.77;;
19006;SDS011;9636;47.382;8.480;2023-02-01T02:49:07;2.10;;;1.87;;
19006;SDS011;9636;47.382;8.480;2023-02-01T02:51:40;1.70;;;1.60;;
19006;SDS011;9636;47.382;8.480;2023-02-01T02:54:26;3.20;;;1.70;;
19006;SDS011;9636;47.382;8.480;2023-02-01T02:57:19;1.97;;;1.60;;
19006;SDS011;9636;47.382;8.480;2023-02-01T03:00:06;2.03;;;1.83;;
19006;SDS011;9636;47.382;8.480;2023-02-01T03:02:52;1.87;;;1.77;;
19006;SDS011;9636;47.382;8.480;2023-02-01T03:05:40;2.40;;;1.90;;
19006;SDS011;9636;47.382;8.480;2023-02-01T03:08:11;1.87;;;1.63;;
19006;SDS011;9636;47.382;8.480;2023-02-01T03:10:43;1.77;;;1.60;;
19006;SDS011;9636;47.382;8.480;2023-02-01T03:13:15;1.93;;;1.73;;
19006;SDS011;9636;47.382;8.480;2023-02-01T03:15:45;1.87;;;1.67;;
19006;SDS011;9636;47.382;8.480;2023-02-01T03:18:16;2.03;;;1.83;;
19006;SDS011;9636;47.382;8.480;2023-02-01T03:20:46;1.77;;;1.60;;
19006;SDS011;9636;47.382;8.480;2023-02-01T03:23:17;3.00;;;1.57;;
19006;SDS011;9636;47.382;8.480;2023-02-01T03:25:47;1.70;;;1.60;;
19006;SDS011;9636;47.382;8.480;2023-02-01T03:28:15;2.07;;;1.50;;
19006;SDS011;9636;47.382;8.480;2023-02-01T03:30:46;1.90;;;1.77;;
19006;SDS011;9636;47.382;8.480;2023-02-01T03:33:15;1.80;;;1.70;;
19006;SDS011;9636;47.382;8.480;2023-02-01T03:35:50;2.10;;;1.90;;
19006;SDS011;9636;47.382;8.480;2023-02-01T03:38:22;1.80;;;1.70;;
19006;SDS011;9636;47.382;8.480;2023-02-01T03:40:51;1.70;;;1.60;;
19006;SDS011;9636;47.382;8.480;2023-02-01T03:43:22;3.63;;;1.53;;
19006;SDS011;9636;47.382;8.480;2023-02-01T03:45:52;1.70;;;1.60;;
19006;SDS011;9636;47.382;8.480;2023-02-01T03:48:21;1.80;;;1.70;;
19006;SDS011;9636;47.382;8.480;2023-02-01T03:50:49;1.70;;;1.60;;
19006;SDS011;9636;47.382;8.480;2023-02-01T03:53:17;1.97;;;1.50;;
19006;SDS011;9636;47.382;8.480;2023-02-01T03:55:47;2.30;;;1.67;;
19006;SDS011;9636;47.382;8.480;2023-02-01T03:58:15;2.20;;;1.80;;
19006;SDS011;9636;47.382;8.480;2023-02-01T04:00:44;2.07;;;1.60;;
19006;SDS011;9636;47.382;8.480;2023-02-01T04:03:12;2.40;;;1.70;;
19006;SDS011;9636;47.382;8.480;2023-02-01T04:05:39;2.07;;;1.70;;
19006;SDS011;9636;47.382;8.480;2023-02-01T04:08:06;1.53;;;1.43;;
19006;SDS011;9636;47.382;8.480;2023-02-01T04:10:33;2.23;;;1.63;;
19006;SDS011;9636;47.382;8.480;2023-02-01T04:13:02;2.33;;;1.60;;
19006;SDS011;9636;47.382;8.480;2023-02-01T04:15:29;1.70;;;1.50;;
19006;SDS011;9636;47.382;8.480;2023-02-01T04:17:56;2.53;;;1.60;;
19006;SDS011;9636;47.382;8.480;2023-02-01T04:20:23;1.80;;;1.50;;
19006;SDS011;9636;47.382;8.480;2023-02-01T04:22:50;1.60;;;1.50;;
19006;SDS011;9636;47.382;8.480;2023-02-01T04:25:17;1.57;;;1.47;;
19006;SDS011;9636;47.382;8.480;2023-02-01T04:27:45;1.60;;;1.50;;
19006;SDS011;9636;47.382;8.480;2023-02-01T04:30:14;1.53;;;1.40;;
19006;SDS011;9636;47.382;8.480;2023-02-01T04:32:41;1.57;;;1.47;;
19006;SDS011;9636;47.382;8.480;2023-02-01T04:35:08;1.80;;;1.50;;
19006;SDS011;9636;47.382;8.480;2023-02-01T04:37:36;1.70;;;1.40;;
19006;SDS011;9636;47.382;8.480;2023-02-01T04:40:04;1.67;;;1.50;;
19006;SDS011;9636;47.382;8.480;2023-02-01T04:42:31;1.40;;;1.30;;
19006;SDS011;9636;47.382;8.480;2023-02-01T04:44:58;1.60;;;1.50;;
19006;SDS011;9636;47.382;8.480;2023-02-01T04:47:26;1.40;;;1.20;;
19006;SDS011;9636;47.382;8.480;2023-02-01T04:49:54;1.63;;;1.47;;
19006;SDS011;9636;47.382;8.480;2023-02-01T04:52:21;1.53;;;1.43;;
19006;SDS011;9636;47.382;8.480;2023-02-01T04:54:48;1.90;;;1.70;;
19006;SDS011;9636;47.382;8.480;2023-02-01T04:57:15;1.60;;;1.30;;
19006;SDS011;9636;47.382;8.480;2023-02-01T04:59:42;2.37;;;1.40;;
19006;SDS011;9636;47.382;8.480;2023-02-01T05:02:09;1.77;;;1.67;;
19006;SDS011;9636;47.382;8.480;2023-02-01T05:04:38;1.60;;;1.50;;
19006;SDS011;9636;47.382;8.480;2023-02-01T05:07:05;1.57;;;1.47;;
19006;SDS011;9636;47.382;8.480;2023-02-01T05:09:32;1.40;;;1.30;;
19006;SDS011;9636;47.382;8.480;2023-02-01T05:11:59;1.50;;;1.40;;
19006;SDS011;9636;47.382;8.480;2023-02-01T05:14:44;1.67;;;1.40;;
19006;SDS011;9636;47.382;8.480;2023-02-01T05:17:12;2.07;;;1.50;;
19006;SDS011;9636;47.382;8.480;2023-02-01T05:19:41;1.67;;;1.47;;
19006;SDS011;9636;47.382;8.480;2023-02-01T05:22:08;1.50;;;1.40;;
19006;SDS011;9636;47.382;8.480;2023-02-01T05:24:35;1.87;;;1.60;;
19006;SDS011;9636;47.382;8.480;2023-02-01T05:27:02;1.43;;;1.30;;
19006;SDS011;9636;47.382;8.480;2023-02-01T05:29:29;1.43;;;1.33;;
19006;SDS011;9636;47.382;8.480;2023-02-01T05:31:57;1.40;;;1.30;;
19006;SDS011;9636;47.382;8.480;2023-02-01T05:34:24;1.50;;;1.40;;
19006;SDS011;9636;47.382;8.480;2023-02-01T05:36:52;1.33;;;1.23;;
19006;SDS011;9636;47.382;8.480;2023-02-01T05:39:20;1.53;;;1.33;;
19006;SDS011;9636;47.382;8.480;2023-02-01T05:41:47;1.60;;;1.50;;
19006;SDS011;9636;47.382;8.480;2023-02-01T05:44:14;1.30;;;1.20;;
19006;SDS011;9636;47.382;8.480;2023-02-01T05:46:41;1.47;;;1.37;;
19006;SDS011;9636;47.382;8.480;2023-02-01T05:49:08;2.00;;;1.33;;
19006;SDS011;9636;47.382;8.480;2023-02-01T05:51:35;1.40;;;1.30;;
19006;SDS011;9636;47.382;8.480;2023-02-01T05:54:04;1.70;;;1.30;;
19006;SDS011;9636;47.382;8.480;2023-02-01T05:56:31;1.33;;;1.23;;
19006;SDS011;9636;47.382;8.480;2023-02-01T05:58:58;1.40;;;1.30;;
19006;SDS011;9636;47.382;8.480;2023-02-01T06:01:26;1.40;;;1.30;;
19006;SDS011;9636;47.382;8.480;2023-02-01T06:03:53;1.83;;;1.50;;
19006;SDS011;9636;47.382;8.480;2023-02-01T06:06:20;1.70;;;1.60;;
19006;SDS011;9636;47.382;8.480;2023-02-01T06:08:47;1.77;;;1.27;;
19006;SDS011;9636;47.382;8.480;2023-02-01T06:11:15;1.50;;;1.33;;
19006;SDS011;9636;47.382;8.480;2023-02-01T06:13:43;1.40;;;1.30;;
19006;SDS011;9636;47.382;8.480;2023-02-01T06:16:10;1.53;;;1.43;;
19006;SDS011;9636;47.382;8.480;2023-02-01T06:18:37;1.60;;;1.50;;
19006;SDS011;9636;47.382;8.480;2023-02-01T06:21:04;1.53;;;1.43;;
19006;SDS011;9636;47.382;8.480;2023-02-01T06:23:31;1.77;;;1.40;;
19006;SDS011;9636;47.382;8.480;2023-02-01T06:25:59;1.60;;;1.50;;
19006;SDS011;9636;47.382;8.480;2023-02-01T06:28:28;1.97;;;1.50;;
19006;SDS011;9636;47.382;8.480;2023-02-01T06:30:56;1.53;;;1.43;;
19006;SDS011;9636;47.382;8.480;2023-02-01T06:33:23;2.10;;;1.60;;
19006;SDS011;9636;47.382;8.480;2023-02-01T06:35:56;1.50;;;1.20;;
19006;SDS011;9636;47.382;8.480;2023-02-01T06:38:23;1.60;;;1.50;;
19006;SDS011;9636;47.382;8.480;2023-02-01T06:40:51;1.50;;;1.40;;
19006;SDS011;9636;47.382;8.480;2023-02-01T06:43:19;1.77;;;1.67;;
19006;SDS011;9636;47.382;8.480;2023-02-01T06:45:47;1.43;;;1.33;;
19006;SDS011;9636;47.382;8.480;2023-02-01T06:48:14;1.60;;;1.43;;
19006;SDS011;9636;47.382;8.480;2023-02-01T06:50:42;1.43;;;1.33;;
19006;SDS011;9636;47.382;8.480;2023-02-01T06:53:09;1.40;;;1.30;;
19006;SDS011;9636;47.382;8.480;2023-02-01T06:55:39;3.27;;;1.50;;
19006;SDS011;9636;47.382;8.480;2023-02-01T06:58:07;2.40;;;1.67;;
19006;SDS011;9636;47.382;8.480;2023-02-01T07:00:34;1.63;;;1.50;;
19006;SDS011;9636;47.382;8.480;2023-02-01T07:03:03;2.03;;;1.40;;
19006;SDS011;9636;47.382;8.480;2023-02-01T07:05:30;2.17;;;1.30;;
19006;SDS011;9636;47.382;8.480;2023-02-01T07:07:57;2.30;;;1.40;;
19006;SDS011;9636;47.382;8.480;2023-02-01T07:10:24;1.83;;;1.60;;
19006;SDS011;9636;47.382;8.480;2023-02-01T07:12:51;1.67;;;1.50;;
19006;SDS011;9636;47.382;8.480;2023-02-01T07:15:18;1.50;;;1.40;;
19006;SDS011;9636;47.382;8.480;2023-02-01T07:17:46;1.93;;;1.70;;
19006;SDS011;9636;47.382;8.480;2023-02-01T07:20:15;1.53;;;1.43;;
19006;SDS011;9636;47.382;8.480;2023-02-01T07:22:43;1.47;;;1.33;;
19006;SDS011;9636;47.382;8.480;2023-02-01T07:25:10;1.80;;;1.50;;
19006;SDS011;9636;47.382;8.480;2023-02-01T07:27:37;1.70;;;1.47;;
19006;SDS011;9636;47.382;8.480;2023-02-01T07:30:05;1.50;;;1.40;;
19006;SDS011;9636;47.382;8.480;2023-02-01T07:32:33;1.70;;;1.60;;
19006;SDS011;9636;47.382;8.480;2023-02-01T07:35:00;1.23;;;1.20;;
19006;SDS011;9636;47.382;8.480;2023-02-01T07:37:28;1.93;;;1.30;;
19006;SDS011;9636;47.382;8.480;2023-02-01T07:39:55;1.47;;;1.37;;
19006;SDS011;9636;47.382;8.480;2023-02-01T07:42:23;1.90;;;1.60;;
19006;SDS011;9636;47.382;8.480;2023-02-01T07:44:50;1.50;;;1.40;;
19006;SDS011;9636;47.382;8.480;2023-02-01T07:47:17;1.70;;;1.60;;
19006;SDS011;9636;47.382;8.480;2023-02-01T07:49:45;1.60;;;1.43;;
19006;SDS011;9636;47.382;8.480;2023-02-01T07:52:12;2.20;;;1.70;;
19006;SDS011;9636;47.382;8.480;2023-02-01T07:54:43;2.00;;;1.60;;
19006;SDS011;9636;47.382;8.480;2023-02-01T07:57:10;1.83;;;1.50;;
19006;SDS011;9636;47.382;8.480;2023-02-01T07:59:38;2.37;;;1.40;;
19006;SDS011;9636;47.382;8.480;2023-02-01T08:02:26;1.60;;;1.50;;
19006;SDS011;9636;47.382;8.480;2023-02-01T08:04:53;2.00;;;1.70;;
19006;SDS011;9636;47.382;8.480;2023-02-01T08:07:20;1.83;;;1.73;;
19006;SDS011;9636;47.382;8.480;2023-02-01T08:09:48;1.70;;;1.53;;
19006;SDS011;9636;47.382;8.480;2023-02-01T08:12:15;2.10;;;1.80;;
19006;SDS011;9636;47.382;8.480;2023-02-01T08:14:43;1.60;;;1.50;;
19006;SDS011;9636;47.382;8.480;2023-02-01T08:17:10;2.13;;;1.67;;
19006;SDS011;9636;47.382;8.480;2023-02-01T08:19:37;1.60;;;1.50;;
19006;SDS011;9636;47.382;8.480;2023-02-01T08:22:04;1.57;;;1.47;;
19006;SDS011;9636;47.382;8.480;2023-02-01T08:24:32;1.63;;;1.53;;
19006;SDS011;9636;47.382;8.480;2023-02-01T08:27:01;3.40;;;1.63;;
19006;SDS011;9636;47.382;8.480;2023-02-01T08:29:28;1.77;;;1.60;;
19006;SDS011;9636;47.382;8.480;2023-02-01T08:31:55;1.90;;;1.70;;
19006;SDS011;9636;47.382;8.480;2023-02-01T08:34:23;2.07;;;1.67;;
19006;SDS011;9636;47.382;8.480;2023-02-01T08:36:51;2.00;;;1.50;;
19006;SDS011;9636;47.382;8.480;2023-02-01T08:39:23;1.57;;;1.47;;
19006;SDS011;9636;47.382;8.480;2023-02-01T08:41:50;1.50;;;1.40;;
19006;SDS011;9636;47.382;8.480;2023-02-01T08:44:33;1.90;;;1.70;;
19006;SDS011;9636;47.382;8.480;2023-02-01T08:47:00;2.23;;;1.50;;
19006;SDS011;9636;47.382;8.480;2023-02-01T08:49:27;2.30;;;1.60;;
19006;SDS011;9636;47.382;8.480;2023-02-01T08:51:54;2.37;;;1.53;;
19006;SDS011;9636;47.382;8.480;2023-02-01T08:54:21;1.53;;;1.43;;
19006;SDS011;9636;47.382;8.480;2023-02-01T08:56:48;3.57;;;1.60;;
19006;SDS011;9636;47.382;8.480;2023-02-01T08:59:17;1.43;;;1.33;;
19006;SDS011;9636;47.382;8.480;2023-02-01T09:01:45;1.70;;;1.33;;
19006;SDS011;9636;47.382;8.480;2023-02-01T09:04:12;1.70;;;1.60;;
19006;SDS011;9636;47.382;8.480;2023-02-01T09:06:40;2.43;;;1.50;;
19006;SDS011;9636;47.382;8.480;2023-02-01T09:09:07;1.60;;;1.50;;
19006;SDS011;9636;47.382;8.480;2023-02-01T09:11:34;1.60;;;1.50;;
19006;SDS011;9636;47.382;8.480;2023-02-01T09:14:01;1.50;;;1.40;;
19006;SDS011;9636;47.382;8.480;2023-02-01T09:16:28;1.60;;;1.50;;
19006;SDS011;9636;47.382;8.480;2023-02-01T09:18:57;2.67;;;1.50;;
19006;SDS011;9636;47.382;8.480;2023-02-01T09:21:24;1.40;;;1.30;;
19006;SDS011;9636;47.382;8.480;2023-02-01T09:23:51;1.53;;;1.43;;
19006;SDS011;9636;47.382;8.480;2023-02-01T09:26:18;1.57;;;1.47;;
19006;SDS011;9636;47.382;8.480;2023-02-01T09:28:46;1.50;;;1.40;;
19006;SDS011;9636;47.382;8.480;2023-02-01T09:31:13;1.30;;;1.20;;
19006;SDS011;9636;47.382;8.480;2023-02-01T09:33:40;1.60;;;1.47;;
19006;SDS011;9636;47.382;8.480;2023-02-01T09:36:08;1.70;;;1.60;;
19006;SDS011;9636;47.382;8.480;2023-02-01T09:38:36;1.90;;;1.40;;
19006;SDS011;9636;47.382;8.480;2023-02-01T09:41:06;2.27;;;1.50;;
19006;SDS011;9636;47.382;8.480;2023-02-01T09:43:37;1.50;;;1.40;;
19006;SDS011;9636;47.382;8.480;2023-02-01T09:46:14;1.87;;;1.40;;
19006;SDS011;9636;47.382;8.480;2023-02-01T09:48:44;1.67;;;1.57;;
19006;SDS011;9636;47.382;8.480;2023-02-01T09:51:13;1.50;;;1.40;;
19006;SDS011;9636;47.382;8.480;2023-02-01T09:53:43;1.67;;;1.40;;
19006;SDS011;9636;47.382;8.480;2023-02-01T09:56:12;1.70;;;1.50;;
19006;SDS011;9636;47.382;8.480;2023-02-01T09:58:41;1.50;;;1.40;;
19006;SDS011;9636;47.382;8.480;2023-02-01T10:01:10;1.37;;;1.27;;
19006;SDS011;9636;47.382;8.480;2023-02-01T10:03:39;1.73;;;1.20;;
19006;SDS011;9636;47.382;8.480;2023-02-01T10:06:10;1.23;;;1.13;;
19006;SDS011;9636;47.382;8.480;2023-02-01T10:08:49;1.60;;;1.50;;
19006;SDS011;9636;47.382;8.480;2023-02-01T10:11:21;1.50;;;1.30;;
19006;SDS011;9636;47.382;8.480;2023-02-01T10:13:54;1.20;;;1.13;;
19006;SDS011;9636;47.382;8.480;2023-02-01T10:16:24;1.30;;;1.20;;
19006;SDS011;9636;47.382;8.480;2023-02-01T10:19:02;1.30;;;1.20;;
19006;SDS011;9636;47.382;8.480;2023-02-01T10:21:36;1.27;;;1.17;;
19006;SDS011;9636;47.382;8.480;2023-02-01T10:24:19;1.97;;;1.40;;
19006;SDS011;9636;47.382;8.480;2023-02-01T10:26:49;1.48;;;1.38;;
19006;SDS011;9636;47.382;8.480;2023-02-01T10:29:18;1.33;;;1.23;;
19006;SDS011;9636;47.382;8.480;2023-02-01T10:31:46;1.43;;;1.10;;
19006;SDS011;9636;47.382;8.480;2023-02-01T10:34:15;1.43;;;1.33;;
19006;SDS011;9636;47.382;8.480;2023-02-01T10:36:49;1.40;;;1.30;;
19006;SDS011;9636;47.382;8.480;2023-02-01T10:39:18;2.83;;;1.57;;
19006;SDS011;9636;47.382;8.480;2023-02-01T10:41:46;1.20;;;1.20;;
19006;SDS011;9636;47.382;8.480;2023-02-01T10:44:15;1.50;;;1.40;;
19006;SDS011;9636;47.382;8.480;2023-02-01T10:46:43;1.70;;;1.60;;
19006;SDS011;9636;47.382;8.480;2023-02-01T10:49:12;2.40;;;1.40;;
19006;SDS011;9636;47.382;8.480;2023-02-01T10:51:42;1.30;;;1.20;;
19006;SDS011;9636;47.382;8.480;2023-02-01T10:54:10;1.23;;;1.13;;
19006;SDS011;9636;47.382;8.480;2023-02-01T10:56:42;1.30;;;1.20;;
19006;SDS011;9636;47.382;8.480;2023-02-01T10:59:14;1.37;;;1.27;;
19006;SDS011;9636;47.382;8.480;2023-02-01T11:01:42;2.50;;;1.30;;
19006;SDS011;9636;47.382;8.480;2023-02-01T11:04:10;1.43;;;1.23;;
19006;SDS011;9636;47.382;8.480;2023-02-01T11:06:39;1.33;;;1.23;;
19006;SDS011;9636;47.382;8.480;2023-02-01T11:09:10;1.20;;;1.10;;
19006;SDS011;9636;47.382;8.480;2023-02-01T11:11:53;1.23;;;1.13;;
19006;SDS011;9636;47.382;8.480;2023-02-01T11:14:26;1.30;;;1.20;;
19006;SDS011;9636;47.382;8.480;2023-02-01T11:16:54;1.37;;;1.27;;
19006;SDS011;9636;47.382;8.480;2023-02-01T11:19:21;1.17;;;1.07;;
19006;SDS011;9636;47.382;8.480;2023-02-01T11:21:48;1.30;;;1.20;;
19006;SDS011;9636;47.382;8.480;2023-02-01T11:24:18;1.30;;;1.20;;
19006;SDS011;9636;47.382;8.480;2023-02-01T11:26:47;1.27;;;1.17;;
19006;SDS011;9636;47.382;8.480;2023-02-01T11:29:15;1.00;;;1.00;;
19006;SDS011;9636;47.382;8.480;2023-02-01T11:31:45;1.20;;;1.10;;
19006;SDS011;9636;47.382;8.480;2023-02-01T11:34:13;1.20;;;1.10;;
19006;SDS011;9636;47.382;8.480;2023-02-01T11:36:41;1.25;;;1.15;;
19006;SDS011;9636;47.382;8.480;2023-02-01T11:39:18;1.02;;;1.02;;
19006;SDS011;9636;47.382;8.480;2023-02-01T11:41:55;0.90;;;0.90;;
19006;SDS011;9636;47.382;8.480;2023-02-01T11:44:29;1.02;;;1.02;;
19006;SDS011;9636;47.382;8.480;2023-02-01T11:47:08;5.50;;;4.20;;
19006;SDS011;9636;47.382;8.480;2023-02-01T11:49:39;5.28;;;2.97;;
19006;SDS011;9636;47.382;8.480;2023-02-01T11:52:09;3.35;;;2.50;;
19006;SDS011;9636;47.382;8.480;2023-02-01T11:54:46;4.45;;;2.47;;
19006;SDS011;9636;47.382;8.480;2023-02-01T11:57:20;2.50;;;2.30;;
19006;SDS011;9636;47.382;8.480;2023-02-01T11:59:53;3.08;;;2.25;;
19006;SDS011;9636;47.382;8.480;2023-02-01T12:05:22;2.80;;;2.10;;
19006;SDS011;9636;47.382;8.480;2023-02-01T12:07:56;2.47;;;1.95;;
19006;SDS011;9636;47.382;8.480;2023-02-01T12:10:29;2.72;;;1.90;;
19006;SDS011;9636;47.382;8.480;2023-02-01T12:13:01;2.50;;;2.00;;
19006;SDS011;9636;47.382;8.480;2023-02-01T12:15:34;2.97;;;2.00;;
19006;SDS011;9636;47.382;8.480;2023-02-01T12:18:25;2.20;;;1.80;;
19006;SDS011;9636;47.382;8.480;2023-02-01T12:23:46;2.40;;;1.90;;
19006;SDS011;9636;47.382;8.480;2023-02-01T12:26:26;2.40;;;1.92;;
19006;SDS011;9636;47.382;8.480;2023-02-01T12:29:03;1.85;;;1.70;;
19006;SDS011;9636;47.382;8.480;2023-02-01T12:31:43;2.00;;;1.80;;
19006;SDS011;9636;47.382;8.480;2023-02-01T12:34:20;1.80;;;1.70;;
19006;SDS011;9636;47.382;8.480;2023-02-01T12:36:53;1.85;;;1.60;;
19006;SDS011;9636;47.382;8.480;2023-02-01T12:39:22;3.30;;;1.60;;
19006;SDS011;9636;47.382;8.480;2023-02-01T12:41:52;2.00;;;1.75;;
19006;SDS011;9636;47.382;8.480;2023-02-01T12:44:28;2.17;;;1.67;;
19006;SDS011;9636;47.382;8.480;2023-02-01T12:46:58;2.38;;;1.98;;
19006;SDS011;9636;47.382;8.480;2023-02-01T12:49:28;3.17;;;1.88;;
19006;SDS011;9636;47.382;8.480;2023-02-01T12:51:58;1.65;;;1.52;;
19006;SDS011;9636;47.382;8.480;2023-02-01T12:54:28;2.40;;;1.67;;
19006;SDS011;9636;47.382;8.480;2023-02-01T12:56:59;1.75;;;1.65;;
19006;SDS011;9636;47.382;8.480;2023-02-01T12:59:31;2.10;;;1.70;;
19006;SDS011;9636;47.382;8.480;2023-02-01T13:01:59;2.15;;;1.58;;
19006;SDS011;9636;47.382;8.480;2023-02-01T13:04:30;2.28;;;1.83;;
19006;SDS011;9636;47.382;8.480;2023-02-01T13:07:00;1.88;;;1.77;;
19006;SDS011;9636;47.382;8.480;2023-02-01T13:09:29;1.60;;;1.50;;
19006;SDS011;9636;47.382;8.480;2023-02-01T13:12:00;1.67;;;1.52;;
19006;SDS011;9636;47.382;8.480;2023-02-01T13:14:35;1.98;;;1.38;;
19006;SDS011;9636;47.382;8.480;2023-02-01T13:17:05;2.10;;;1.33;;
19006;SDS011;9636;47.382;8.480;2023-02-01T13:19:37;1.77;;;1.38;;
19006;SDS011;9636;47.382;8.480;2023-02-01T13:22:09;1.60;;;1.50;;
19006;SDS011;9636;47.382;8.480;2023-02-01T13:24:38;1.38;;;1.27;;
19006;SDS011;9636;47.382;8.480;2023-02-01T13:27:08;1.63;;;1.50;;
19006;SDS011;9636;47.382;8.480;2023-02-01T13:29:40;1.63;;;1.50;;
19006;SDS011;9636;47.382;8.480;2023-02-01T13:32:11;1.60;;;1.50;;
19006;SDS011;9636;47.382;8.480;2023-02-01T13:37:27;1.70;;;1.50;;
19006;SDS011;9636;47.382;8.480;2023-02-01T13:39:59;2.00;;;1.55;;
19006;SDS011;9636;47.382;8.480;2023-02-01T13:42:33;2.45;;;1.30;;
19006;SDS011;9636;47.382;8.480;2023-02-01T13:45:03;1.83;;;1.50;;
19006;SDS011;9636;47.382;8.480;2023-02-01T13:47:31;1.50;;;1.40;;
19006;SDS011;9636;47.382;8.480;2023-02-01T13:50:01;1.50;;;1.40;;
19006;SDS011;9636;47.382;8.480;2023-02-01T13:52:31;4.88;;;1.27;;
19006;SDS011;9636;47.382;8.480;2023-02-01T13:55:03;1.50;;;1.40;;
19006;SDS011;9636;47.382;8.480;2023-02-01T13:57:41;1.45;;;1.35;;
19006;SDS011;9636;47.382;8.480;2023-02-01T14:00:22;1.65;;;1.40;;
19006;SDS011;9636;47.382;8.480;2023-02-01T14:03:01;1.73;;;1.50;;
19006;SDS011;9636;47.382;8.480;2023-02-01T14:08:21;1.90;;;1.20;;
19006;SDS011;9636;47.382;8.480;2023-02-01T14:10:49;1.60;;;1.50;;
19006;SDS011;9636;47.382;8.480;2023-02-01T14:13:25;1.70;;;1.40;;
19006;SDS011;9636;47.382;8.480;2023-02-01T14:21:24;1.52;;;1.42;;
19006;SDS011;9636;47.382;8.480;2023-02-01T14:23:56;2.55;;;1.58;;
19006;SDS011;9636;47.382;8.480;2023-02-01T14:26:24;1.40;;;1.30;;
19006;SDS011;9636;47.382;8.480;2023-02-01T14:28:53;1.95;;;1.60;;
19006;SDS011;9636;47.382;8.480;2023-02-01T14:31:31;1.70;;;1.33;;
19006;SDS011;9636;47.382;8.480;2023-02-01T14:34:00;2.15;;;1.20;;
19006;SDS011;9636;47.382;8.480;2023-02-01T14:36:40;1.73;;;1.45;;
19006;SDS011;9636;47.382;8.480;2023-02-01T14:39:21;1.20;;;1.10;;
19006;SDS011;9636;47.382;8.480;2023-02-01T14:41:51;1.40;;;1.30;;
19006;SDS011;9636;47.382;8.480;2023-02-01T14:44:26;1.40;;;1.30;;
19006;SDS011;9636;47.382;8.480;2023-02-01T14:47:05;1.25;;;1.17;;
19006;SDS011;9636;47.382;8.480;2023-02-01T14:49:33;1.55;;;1.40;;
19006;SDS011;9636;47.382;8.480;2023-02-01T14:52:04;1.50;;;1.27;;
19006;SDS011;9636;47.382;8.480;2023-02-01T14:54:32;1.40;;;1.30;;
19006;SDS011;9636;47.382;8.480;2023-02-01T14:56:59;1.33;;;1.23;;
19006;SDS011;9636;47.382;8.480;2023-02-01T14:59:27;1.40;;;1.30;;
19006;SDS011;9636;47.382;8.480;2023-02-01T15:01:58;1.52;;;1.42;;
19006;SDS011;9636;47.382;8.480;2023-02-01T15:04:26;1.58;;;1.48;;
19006;SDS011;9636;47.382;8.480;2023-02-01T15:06:53;1.63;;;1.30;;
19006;SDS011;9636;47.382;8.480;2023-02-01T15:09:25;1.48;;;1.20;;
19006;SDS011;9636;47.382;8.480;2023-02-01T15:11:54;1.70;;;1.33;;
19006;SDS011;9636;47.382;8.480;2023-02-01T15:14:21;1.98;;;1.42;;
19006;SDS011;9636;47.382;8.480;2023-02-01T15:16:48;2.60;;;1.40;;
19006;SDS011;9636;47.382;8.480;2023-02-01T15:19:19;1.45;;;1.35;;
19006;SDS011;9636;47.382;8.480;2023-02-01T15:21:48;1.45;;;1.30;;
19006;SDS011;9636;47.382;8.480;2023-02-01T15:24:19;1.50;;;1.40;;
19006;SDS011;9636;47.382;8.480;2023-02-01T15:26:47;1.30;;;1.20;;
19006;SDS011;9636;47.382;8.480;2023-02-01T15:29:14;1.77;;;1.23;;
19006;SDS011;9636;47.382;8.480;2023-02-01T15:31:43;1.48;;;1.25;;
19006;SDS011;9636;47.382;8.480;2023-02-01T15:34:11;1.30;;;1.20;;
19006;SDS011;9636;47.382;8.480;2023-02-01T15:36:39;1.50;;;1.40;;
19006;SDS011;9636;47.382;8.480;2023-02-01T15:39:19;1.75;;;1.45;;